Terminal Aerodrome Forecast
Issued by NWS Bismarck, ND

Home | Current Version | Previous Version | Graphics & Text | Print | Product List | Glossary On
Versions: 1 2 3 4 5 6 7 8 9 10 11 12 13 14 15 16 17 18 19 20 21 22 23 24 25 26
000
FTUS43 KBIS 261017 AAB
TAFISN
TAF AMD
KISN 261017Z 2610/2706 27005KT 1SM BR BKN002
     FM261600 29006KT P6SM BKN030
     FM261800 30007KT P6SM -SHRA VCTS BKN050CB
     FM270000 01010KT P6SM OVC050=

USA.gov is the U.S. government's official web portal to all federal, state and local government web resources and services.